Time;durP1;ratioP1;P1;durP2;ratioP2;P2;SDS_P1;SDS_P2;PMS_P1;PMS_P2;Temp;Humidity;BMP_temperature;BMP_pressure;BME280_temperature;BME280_humidity;BME280_pressure;Samples;Min_cycle;Max_cycle;Signal;HPM_P1;HPM_P2
2022/10/05 00:02:40;;;;;;;14.75;7.35;;;4.90;99.90;;;;;;8258064;28;20027;-80
2022/10/05 00:06:49;;;;;;;13.10;7.03;;;4.90;99.90;;;;;;8265057;28;20048;-79
2022/10/05 00:10:50;;;;;;;14.27;7.53;;;4.90;99.90;;;;;;8265661;28;20037;-80
2022/10/05 00:14:58;;;;;;;13.80;7.10;;;5.00;99.90;;;;;;8264973;28;20406;-79
2022/10/05 00:18:58;;;;;;;13.00;7.05;;;4.90;99.90;;;;;;8265116;28;20045;-79
2022/10/05 00:23:01;;;;;;;16.90;6.97;;;4.90;99.90;;;;;;8266062;28;20030;-79
2022/10/05 00:27:18;;;;;;;12.85;7.90;;;4.90;99.90;;;;;;8264991;28;20030;-80
2022/10/05 00:31:25;;;;;;;14.93;7.15;;;4.90;99.90;;;;;;8264191;28;20030;-80
2022/10/05 00:35:28;;;;;;;13.95;7.18;;;4.70;99.90;;;;;;8264901;28;20060;-78
2022/10/05 00:39:28;;;;;;;15.65;8.07;;;4.60;99.90;;;;;;8265846;28;20030;-79
2022/10/05 00:43:38;;;;;;;13.38;7.57;;;4.70;99.90;;;;;;8263896;28;20033;-79
2022/10/05 00:48:00;;;;;;;14.57;8.03;;;4.60;99.90;;;;;;8257987;28;20019;-79
2022/10/05 00:52:39;;;;;;;19.63;9.27;;;4.60;99.90;;;;;;8265595;28;20258;-78
2022/10/05 00:57:17;;;;;;;18.95;8.23;;;4.50;99.90;;;;;;8242294;28;20062;-79
2022/10/05 01:01:56;;;;;;;19.25;9.13;;;4.60;99.90;;;;;;8258040;28;20026;-79
2022/10/05 01:06:15;;;;;;;17.73;9.32;;;4.70;99.90;;;;;;8261198;28;20033;-79
2022/10/05 01:10:36;;;;;;;21.10;10.38;;;4.70;99.90;;;;;;8258094;28;20128;-80
2022/10/05 01:14:58;;;;;;;23.67;10.70;;;4.60;99.90;;;;;;8257249;28;20113;-80
2022/10/05 01:19:24;;;;;;;22.35;10.68;;;4.60;99.90;;;;;;8263838;28;20046;-78
2022/10/05 01:23:50;;;;;;;20.40;10.15;;;4.70;99.90;;;;;;8263630;28;20030;-79
2022/10/05 01:28:06;;;;;;;27.00;10.80;;;4.70;99.90;;;;;;8264359;28;20475;-79
2022/10/05 01:32:27;;;;;;;19.65;10.73;;;4.60;99.90;;;;;;8262747;28;20478;-79
2022/10/05 01:36:48;;;;;;;;;;;4.70;99.90;;;;;;8262312;28;20038;-79
2022/10/05 01:41:13;;;;;;;19.47;9.90;;;4.70;99.90;;;;;;8258240;28;20325;-79
2022/10/05 01:45:52;;;;;;;18.17;9.68;;;4.70;99.90;;;;;;8263914;28;20394;-79
2022/10/05 01:50:10;;;;;;;21.10;9.43;;;4.70;99.90;;;;;;8258798;28;20022;-80
2022/10/05 01:54:32;;;;;;;21.23;9.32;;;4.70;99.90;;;;;;8262732;28;20529;-79
2022/10/05 01:58:53;;;;;;;20.42;9.60;;;4.70;99.90;;;;;;8261962;28;20030;-80
2022/10/05 02:02:53;;;;;;;;;;;4.60;99.90;;;;;;8257591;28;20138;-79
2022/10/05 02:06:55;;;;;;;15.30;8.95;;;4.60;99.90;;;;;;8261047;28;19906;-80
2022/10/05 02:11:04;;;;;;;15.45;8.93;;;4.70;99.90;;;;;;8260938;28;20022;-79
2022/10/05 02:15:12;;;;;;;19.80;10.48;;;4.70;99.90;;;;;;8260665;28;20031;-79
2022/10/05 02:19:24;;;;;;;18.98;10.02;;;4.60;99.90;;;;;;8261184;28;20495;-79
2022/10/05 02:23:29;;;;;;;22.58;10.60;;;4.70;99.90;;;;;;8259572;28;20028;-79
2022/10/05 02:27:35;;;;;;;18.63;10.40;;;4.60;99.90;;;;;;8260955;28;20050;-79
2022/10/05 02:31:44;;;;;;;19.77;9.85;;;4.50;99.90;;;;;;8254181;28;20491;-80
2022/10/05 02:35:45;;;;;;;21.38;11.73;;;4.50;99.90;;;;;;8260722;28;20018;-79
2022/10/05 02:40:21;;;;;;;22.50;10.82;;;4.50;99.90;;;;;;8261391;28;20084;-79
2022/10/05 02:44:34;;;;;;;19.25;10.25;;;4.50;99.90;;;;;;8218097;28;20038;-80
2022/10/05 02:49:10;;;;;;;23.75;10.18;;;4.50;99.90;;;;;;8253402;28;20034;-79
2022/10/05 02:53:29;;;;;;;19.80;8.13;;;4.40;99.90;;;;;;8261367;28;20098;-80
2022/10/05 02:57:45;;;;;;;16.25;7.72;;;4.10;99.90;;;;;;8259626;28;20034;-80
2022/10/05 03:01:50;;;;;;;12.10;7.72;;;4.00;99.90;;;;;;8252851;28;20022;-79
2022/10/05 03:06:28;;;;;;;19.33;8.75;;;4.00;99.90;;;;;;8262702;28;20045;-79
2022/10/05 03:11:06;;;;;;;19.58;9.40;;;3.90;99.90;;;;;;8257752;28;20105;-79
2022/10/05 03:15:22;;;;;;;20.17;10.18;;;4.00;99.90;;;;;;8266127;28;20053;-79
2022/10/05 03:19:44;;;;;;;18.58;9.43;;;4.10;99.90;;;;;;8266272;28;20018;-79
2022/10/05 03:23:48;;;;;;;18.13;9.07;;;4.10;99.90;;;;;;8260670;28;20022;-80
2022/10/05 03:28:19;;;;;;;23.33;8.70;;;3.90;99.90;;;;;;8266092;28;20022;-79
2022/10/05 03:32:45;;;;;;;19.42;8.70;;;3.90;99.90;;;;;;8265466;28;20034;-80
2022/10/05 03:36:56;;;;;;;18.60;8.93;;;4.00;99.90;;;;;;8260362;28;20027;-79
2022/10/05 03:41:24;;;;;;;19.67;9.82;;;3.90;99.90;;;;;;8262293;28;20057;-78
2022/10/05 03:45:51;;;;;;;18.58;10.35;;;3.90;99.90;;;;;;8262551;28;20073;-80
2022/10/05 03:50:29;;;;;;;20.10;9.93;;;3.90;99.90;;;;;;8263680;28;20665;-79
2022/10/05 03:54:40;;;;;;;21.02;10.60;;;4.00;99.90;;;;;;8260973;28;20026;-79
2022/10/05 03:59:04;;;;;;;25.20;12.80;;;3.90;99.90;;;;;;8258980;28;20031;-80
2022/10/05 04:03:38;;;;;;;21.83;11.82;;;3.90;99.90;;;;;;8256162;28;20071;-79
2022/10/05 04:07:48;;;;;;;19.30;10.93;;;3.90;99.90;;;;;;8256248;28;20026;-78
2022/10/05 04:12:01;;;;;;;;;;;4.00;99.90;;;;;;8258134;28;20553;-79
2022/10/05 04:16:21;;;;;;;15.63;7.75;;;4.10;99.90;;;;;;8258057;28;20336;-79
2022/10/05 04:20:26;;;;;;;14.05;7.72;;;4.30;99.90;;;;;;8260485;28;20030;-78
2022/10/05 04:24:36;;;;;;;17.00;8.52;;;4.30;99.90;;;;;;8259498;28;20042;-78
2022/10/05 04:28:53;;;;;;;15.57;8.35;;;4.20;99.90;;;;;;8262737;28;20033;-78
2022/10/05 04:32:59;;;;;;;20.02;8.60;;;4.10;99.90;;;;;;8260672;28;20038;-78
2022/10/05 04:37:04;;;;;;;23.85;10.60;;;4.10;99.90;;;;;;8260307;28;20426;-78
2022/10/05 04:41:22;;;;;;;18.58;9.68;;;4.00;99.90;;;;;;8262426;28;20019;-79
2022/10/05 04:45:55;;;;;;;19.15;9.73;;;4.00;99.90;;;;;;8262370;28;20053;-78
2022/10/05 04:50:11;;;;;;;18.63;8.75;;;4.00;99.90;;;;;;8259865;28;20046;-79
2022/10/05 04:54:24;;;;;;;16.42;8.63;;;4.10;99.90;;;;;;8262985;28;20041;-79
2022/10/05 04:59:00;;;;;;;24.20;9.68;;;4.10;99.90;;;;;;8261028;28;20031;-78
2022/10/05 05:03:28;;;;;;;14.32;7.78;;;4.00;99.90;;;;;;8250985;28;20019;-78
2022/10/05 05:07:39;;;;;;;17.25;8.10;;;3.90;99.90;;;;;;8261599;28;20050;-79
2022/10/05 05:12:08;;;;;;;14.30;7.32;;;3.80;99.90;;;;;;8262188;28;20057;-78
2022/10/05 05:16:09;;;;;;;16.02;7.97;;;3.80;99.90;;;;;;8261741;28;20034;-77
2022/10/05 05:20:19;;;;;;;13.40;7.43;;;4.00;99.90;;;;;;8262956;28;20029;-78
2022/10/05 05:24:31;;;;;;;;;;;3.90;99.90;;;;;;8262700;28;20030;-78
2022/10/05 05:28:41;;;;;;;12.75;7.30;;;4.00;99.90;;;;;;8261762;28;19928;-78
2022/10/05 05:33:12;;;;;;;12.85;8.05;;;4.10;99.90;;;;;;8260821;28;20109;-78
2022/10/05 05:37:48;;;;;;;10.77;6.80;;;4.30;99.90;;;;;;8261589;28;20057;-78
2022/10/05 05:42:15;;;;;;;11.80;6.72;;;4.40;99.90;;;;;;8261910;28;20026;-78
2022/10/05 05:46:26;;;;;;;13.00;8.05;;;4.40;99.90;;;;;;8260459;28;20025;-78
2022/10/05 05:50:45;;;;;;;15.88;9.18;;;4.50;99.90;;;;;;8259559;28;20594;-78
2022/10/05 05:54:50;;;;;;;21.15;12.80;;;4.60;99.90;;;;;;8260050;28;20057;-77
2022/10/05 05:58:58;;;;;;;19.92;12.85;;;4.70;99.90;;;;;;8261218;28;20374;-78
2022/10/05 06:03:25;;;;;;;14.43;9.40;;;4.90;99.90;;;;;;8259138;28;20394;-77
2022/10/05 06:07:29;;;;;;;17.48;9.95;;;4.90;99.90;;;;;;8246712;28;20053;-77
2022/10/05 06:11:34;;;;;;;14.13;9.98;;;4.90;99.90;;;;;;8261033;28;20026;-78
2022/10/05 06:15:44;;;;;;;15.52;11.05;;;5.00;99.90;;;;;;8259562;28;20626;-77
2022/10/05 06:19:47;;;;;;;18.55;9.05;;;5.20;99.90;;;;;;8259540;28;20431;-79
2022/10/05 06:23:55;;;;;;;13.05;8.63;;;5.60;99.90;;;;;;8259457;28;20487;-79
2022/10/05 06:28:11;;;;;;;9.60;6.63;;;5.70;99.90;;;;;;8259663;28;20185;-78
2022/10/05 06:32:28;;;;;;;8.02;5.40;;;5.80;99.90;;;;;;8259492;28;20033;-78
2022/10/05 06:36:44;;;;;;;6.40;5.15;;;6.00;99.90;;;;;;8258414;28;20054;-78
2022/10/05 06:41:03;;;;;;;11.88;5.65;;;6.30;99.90;;;;;;8253695;28;20505;-78
2022/10/05 06:45:29;;;;;;;9.60;6.47;;;6.40;99.90;;;;;;8258683;28;20019;-78
2022/10/05 06:49:46;;;;;;;12.65;7.45;;;6.50;99.90;;;;;;8258911;28;20026;-78
2022/10/05 06:54:07;;;;;;;8.45;6.75;;;6.50;99.90;;;;;;8254340;28;20036;-78
2022/10/05 06:58:17;;;;;;;;;;;6.60;99.90;;;;;;8260543;28;20077;-78
2022/10/05 07:02:28;;;;;;;7.45;5.78;;;6.60;99.90;;;;;;8258092;28;19914;-78
2022/10/05 07:06:31;;;;;;;7.07;4.70;;;6.70;99.90;;;;;;8257672;28;20029;-79
2022/10/05 07:11:03;;;;;;;7.00;4.88;;;6.80;99.90;;;;;;8252711;28;20454;-79
2022/10/05 07:15:33;;;;;;;5.80;4.50;;;6.90;99.90;;;;;;8256084;28;20053;-78
2022/10/05 07:19:55;;;;;;;6.10;4.60;;;7.20;99.90;;;;;;8259309;28;20029;-79
2022/10/05 07:24:14;;;;;;;7.40;4.05;;;7.20;99.90;;;;;;8258784;28;20030;-79
2022/10/05 07:28:45;;;;;;;6.72;4.35;;;7.90;99.90;;;;;;8258579;28;20106;-79
2022/10/05 07:32:55;;;;;;;5.75;4.10;;;8.00;99.90;;;;;;8253543;28;20019;-78
2022/10/05 07:41:44;;;;;;;7.05;4.82;;;8.00;99.90;;;;;;8259239;28;20045;-79
2022/10/05 07:45:52;;;;;;;8.70;4.88;;;8.20;99.90;;;;;;8253007;28;20022;-79
2022/10/05 07:50:32;;;;;;;6.63;5.18;;;8.60;99.90;;;;;;8258380;28;20022;-79
2022/10/05 07:54:48;;;;;;;7.63;5.28;;;8.80;99.90;;;;;;8263932;28;20022;-80
2022/10/05 07:59:00;;;;;;;13.50;6.50;;;9.10;99.90;;;;;;8265269;28;20097;-79
2022/10/05 08:03:09;;;;;;;8.40;5.97;;;9.40;99.90;;;;;;8262961;28;20583;-79
2022/10/05 08:07:15;;;;;;;9.15;6.68;;;9.60;99.90;;;;;;8264644;28;20014;-79
2022/10/05 08:11:22;;;;;;;11.68;6.28;;;10.30;99.90;;;;;;8264733;28;20072;-79
2022/10/05 08:15:31;;;;;;;11.70;5.97;;;10.80;99.90;;;;;;8265423;28;20169;-80
2022/10/05 08:19:40;;;;;;;10.25;5.68;;;11.30;99.90;;;;;;8264926;28;20030;-79
2022/10/05 08:23:47;;;;;;;12.23;6.13;;;11.40;99.90;;;;;;8265114;28;20038;-80
2022/10/05 08:27:53;;;;;;;6.60;4.53;;;11.80;99.90;;;;;;8265874;28;20026;-80
2022/10/05 08:32:20;;;;;;;7.63;4.85;;;12.20;99.90;;;;;;8264422;28;20041;-80
2022/10/05 08:36:33;;;;;;;6.43;4.75;;;12.30;99.90;;;;;;8265302;28;20113;-80
2022/10/05 08:41:11;;;;;;;7.13;4.70;;;12.70;99.90;;;;;;8257326;28;20026;-79
2022/10/05 08:45:45;;;;;;;4.80;4.03;;;12.80;99.90;;;;;;8262002;28;20106;-79
2022/10/05 08:50:04;;;;;;;5.32;4.18;;;13.10;99.90;;;;;;8263844;28;20034;-79
2022/10/05 08:54:30;;;;;;;5.72;3.47;;;13.30;99.90;;;;;;8264080;28;20022;-79
2022/10/05 08:59:08;;;;;;;5.18;3.47;;;13.80;99.90;;;;;;8262785;28;20026;-79
2022/10/05 09:03:25;;;;;;;4.07;3.20;;;13.90;99.90;;;;;;8255368;28;20030;-80
2022/10/05 09:08:07;;;;;;;3.50;2.50;;;14.30;99.90;;;;;;8256069;28;20058;-77
2022/10/05 09:12:17;;;;;;;5.78;2.75;;;14.80;99.90;;;;;;8260619;28;20502;-80
2022/10/05 09:16:37;;;;;;;6.22;2.40;;;15.30;99.90;;;;;;8255370;28;20035;-80
2022/10/05 09:20:44;;;;;;;3.22;2.38;;;16.00;99.90;;;;;;8255963;28;20045;-79
2022/10/05 09:24:57;;;;;;;7.05;2.30;;;16.60;99.90;;;;;;8261900;28;20034;-79
2022/10/05 09:29:20;;;;;;;2.40;2.15;;;17.10;99.90;;;;;;8263164;28;20113;-78
2022/10/05 09:33:39;;;;;;;9.52;2.60;;;17.80;99.90;;;;;;8261906;28;20081;-79
2022/10/05 09:37:52;;;;;;;4.15;2.40;;;18.30;99.90;;;;;;8249095;28;20079;-79
2022/10/05 09:42:20;;;;;;;4.10;2.15;;;18.70;99.90;;;;;;8261378;28;20085;-79
2022/10/05 09:46:34;;;;;;;3.10;2.40;;;19.00;99.90;;;;;;8261065;28;20502;-78
2022/10/05 09:51:16;;;;;;;2.33;1.98;;;19.20;99.90;;;;;;8255430;28;20023;-79
2022/10/05 09:55:54;;;;;;;3.72;2.22;;;19.60;99.90;;;;;;8260581;28;20029;-79
2022/10/05 10:00:33;;;;;;;3.72;1.92;;;20.10;99.90;;;;;;8252740;28;20030;-80
2022/10/05 10:05:04;;;;;;;4.15;1.98;;;21.30;99.90;;;;;;8259824;28;20050;-80
2022/10/05 10:09:19;;;;;;;2.40;1.95;;;22.10;99.90;;;;;;8250487;28;20031;-78
2022/10/05 10:13:38;;;;;;;2.70;1.70;;;22.50;99.90;;;;;;8259159;28;20085;-79
2022/10/05 10:17:54;;;;;;;6.50;1.73;;;22.90;99.90;;;;;;8259670;28;20062;-79
2022/10/05 10:22:37;;;;;;;5.82;1.90;;;23.10;99.90;;;;;;8260069;28;20026;-78
2022/10/05 10:26:58;;;;;;;2.33;1.70;;;23.80;99.90;;;;;;8258698;28;20026;-79
2022/10/05 10:31:10;;;;;;;2.10;1.90;;;23.90;99.90;;;;;;8261198;28;20081;-79
2022/10/05 10:35:20;;;;;;;2.13;1.90;;;24.30;99.90;;;;;;8283878;28;20501;-79
2022/10/05 10:40:03;;;;;;;2.75;1.58;;;24.00;99.90;;;;;;8253024;28;20030;-79
2022/10/05 10:44:37;;;;;;;3.65;1.75;;;23.80;99.90;;;;;;8230609;28;20034;-79
2022/10/05 10:49:14;;;;;;;3.15;1.88;;;24.90;99.90;;;;;;8252972;28;20050;-80
2022/10/05 10:53:33;;;;;;;3.25;1.88;;;24.80;99.90;;;;;;8261365;28;20019;-78
2022/10/05 10:57:55;;;;;;;2.78;1.83;;;24.80;99.90;;;;;;8259569;28;20033;-79
2022/10/05 11:02:04;;;;;;;2.40;1.63;;;25.00;99.90;;;;;;8255069;28;20029;-79
2022/10/05 11:06:16;;;;;;;1.80;1.57;;;25.30;99.90;;;;;;8258947;28;20018;-81
2022/10/05 11:11:07;;;;;;;2.95;1.50;;;25.10;99.90;;;;;;8260093;28;20026;-79
2022/10/05 11:15:28;;;;;;;1.83;1.50;;;25.80;99.90;;;;;;8247924;28;20533;-80
2022/10/05 11:19:43;;;;;;;3.63;1.42;;;26.90;99.90;;;;;;8261090;28;20035;-79
2022/10/05 11:24:15;;;;;;;1.92;0.95;;;27.30;99.00;;;;;;8255713;28;20026;-79
2022/10/05 11:28:34;;;;;;;3.40;1.40;;;27.00;96.30;;;;;;8266000;28;20022;-79
2022/10/05 11:32:37;;;;;;;2.58;1.10;;;27.20;96.60;;;;;;8267030;28;20033;-78
2022/10/05 11:37:04;;;;;;;1.42;1.10;;;27.70;94.30;;;;;;8266365;28;20030;-80
2022/10/05 11:41:22;;;;;;;1.77;1.17;;;28.40;94.50;;;;;;8266418;28;20060;-79
2022/10/05 11:45:32;;;;;;;1.60;1.13;;;28.70;92.80;;;;;;8265435;28;20030;-79
2022/10/05 11:49:40;;;;;;;3.63;1.10;;;28.80;90.10;;;;;;8264381;28;20058;-79
2022/10/05 11:54:16;;;;;;;2.33;1.20;;;28.60;87.80;;;;;;8260363;28;20050;-80
2022/10/05 11:58:30;;;;;;;2.70;1.02;;;28.60;88.50;;;;;;8265118;28;20028;-80
2022/10/05 12:02:53;;;;;;;2.95;1.02;;;29.00;80.50;;;;;;8264805;28;20054;-79
2022/10/05 12:07:15;;;;;;;2.40;1.20;;;29.30;79.50;;;;;;8265480;28;20506;-80
2022/10/05 12:11:57;;;;;;;1.83;1.30;;;29.00;77.70;;;;;;8264415;28;20335;-80
2022/10/05 12:16:18;;;;;;;1.35;0.80;;;28.80;76.80;;;;;;8251573;28;20686;-79
2022/10/05 12:20:21;;;;;;;;;;;29.00;79.40;;;;;;8265615;28;20078;-80
2022/10/05 12:24:34;;;;;;;1.85;1.10;;;29.20;78.50;;;;;;8263659;28;20385;-80
2022/10/05 12:28:54;;;;;;;3.83;1.15;;;29.30;74.50;;;;;;8264186;28;20026;-79
2022/10/05 12:33:03;;;;;;;1.47;1.17;;;28.90;72.70;;;;;;8261474;28;20124;-79
2022/10/05 12:37:35;;;;;;;1.00;0.90;;;29.10;75.00;;;;;;8262730;28;20052;-79
2022/10/05 12:41:46;;;;;;;1.38;0.98;;;29.10;70.70;;;;;;8265270;28;20038;-79
2022/10/05 12:46:05;;;;;;;1.23;0.93;;;28.90;73.80;;;;;;8265090;28;20615;-79
2022/10/05 12:50:33;;;;;;;1.10;1.00;;;28.60;72.40;;;;;;8262201;28;20105;-79
2022/10/05 12:54:45;;;;;;;2.45;0.90;;;28.10;72.10;;;;;;8264025;28;20054;-80
2022/10/05 12:58:54;;;;;;;1.20;0.90;;;28.30;75.30;;;;;;8259309;28;20033;-79
2022/10/05 13:03:15;;;;;;;0.95;0.90;;;28.40;71.30;;;;;;8261889;28;20046;-80
2022/10/05 13:07:46;;;;;;;3.55;1.10;;;29.10;71.10;;;;;;8262631;28;20023;-79
2022/10/05 13:11:50;;;;;;;1.27;1.00;;;28.60;71.90;;;;;;8258112;28;20023;-80
2022/10/05 13:16:06;;;;;;;2.70;1.00;;;29.20;72.80;;;;;;8261555;28;20502;-79
2022/10/05 13:20:33;;;;;;;1.95;0.90;;;29.50;71.30;;;;;;8262378;28;20033;-79
2022/10/05 13:24:44;;;;;;;2.28;1.10;;;29.40;68.60;;;;;;8240325;28;20082;-79
2022/10/05 13:28:55;;;;;;;1.45;1.20;;;29.40;69.20;;;;;;8256850;28;20087;-80
2022/10/05 13:33:06;;;;;;;1.70;1.10;;;28.80;71.70;;;;;;8252350;28;20483;-78
2022/10/05 13:37:12;;;;;;;2.08;1.00;;;28.40;73.60;;;;;;8261109;28;20018;-79
2022/10/05 13:41:29;;;;;;;2.00;0.90;;;28.30;73.80;;;;;;8260838;28;20022;-79
2022/10/05 13:45:56;;;;;;;2.63;1.25;;;28.30;74.20;;;;;;8256097;28;20015;-80
2022/10/05 13:50:35;;;;;;;2.25;1.25;;;28.60;73.10;;;;;;8255112;28;20034;-82
2022/10/05 13:55:03;;;;;;;2.47;1.10;;;28.60;71.30;;;;;;8237104;28;20046;-81
2022/10/05 13:59:29;;;;;;;1.90;1.20;;;29.10;72.10;;;;;;8266573;28;20061;-82
2022/10/05 14:03:33;;;;;;;1.85;1.20;;;29.00;72.30;;;;;;8262653;28;20387;-81
2022/10/05 14:07:48;;;;;;;2.70;1.30;;;28.60;73.60;;;;;;8260365;28;20483;-82
2022/10/05 14:12:04;;;;;;;3.83;1.30;;;27.90;75.80;;;;;;8259378;28;20058;-81
2022/10/05 14:16:20;;;;;;;2.10;1.20;;;27.90;76.30;;;;;;8259853;28;20038;-81
2022/10/05 14:20:30;;;;;;;2.15;1.42;;;27.80;76.00;;;;;;8259022;28;20084;-79
2022/10/05 14:24:35;;;;;;;3.15;1.48;;;26.90;77.80;;;;;;8257583;28;20026;-81
2022/10/05 14:28:38;;;;;;;1.63;1.20;;;26.20;81.20;;;;;;8256538;28;20026;-81
2022/10/05 14:33:01;;;;;;;1.38;1.27;;;25.80;83.40;;;;;;8259578;28;20053;-81
2022/10/05 14:37:30;;;;;;;1.25;1.15;;;25.10;84.70;;;;;;8252194;28;20121;-82
2022/10/05 14:41:36;;;;;;;2.25;1.10;;;24.60;86.70;;;;;;8257117;28;20034;-81
2022/10/05 14:45:55;;;;;;;3.38;1.60;;;24.30;87.40;;;;;;8253954;28;20049;-80
2022/10/05 14:50:15;;;;;;;2.55;1.30;;;23.70;89.50;;;;;;8261279;28;20030;-81
2022/10/05 14:54:34;;;;;;;1.97;1.20;;;23.40;90.10;;;;;;8273308;28;20390;-81
2022/10/05 14:59:12;;;;;;;2.67;1.30;;;23.40;91.10;;;;;;8252165;28;20085;-80
2022/10/05 15:03:40;;;;;;;5.03;1.65;;;23.10;91.20;;;;;;8260348;28;20022;-81
2022/10/05 15:07:44;;;;;;;3.65;1.40;;;22.60;92.40;;;;;;8259187;28;20081;-81
2022/10/05 15:11:50;;;;;;;2.05;1.25;;;22.30;92.30;;;;;;8265124;28;20030;-80
2022/10/05 15:15:56;;;;;;;2.10;1.42;;;21.80;93.90;;;;;;8262222;28;20517;-80
2022/10/05 15:20:23;;;;;;;1.75;1.30;;;21.40;94.80;;;;;;8263062;28;20026;-81
2022/10/05 15:24:30;;;;;;;2.00;1.30;;;21.00;96.60;;;;;;8263000;28;20027;-80
2022/10/05 15:28:53;;;;;;;3.63;1.20;;;20.60;98.20;;;;;;8262164;28;20441;-81
2022/10/05 15:33:23;;;;;;;3.25;1.33;;;20.20;99.60;;;;;;8258801;28;20066;-80
2022/10/05 15:37:23;;;;;;;2.13;1.20;;;20.20;99.90;;;;;;8262459;28;20050;-81
2022/10/05 15:41:32;;;;;;;2.15;1.20;;;19.90;99.90;;;;;;8262611;28;20085;-80
2022/10/05 15:45:36;;;;;;;2.47;1.42;;;19.70;99.90;;;;;;8262885;28;20394;-80
2022/10/05 15:50:11;;;;;;;2.50;1.45;;;19.50;99.90;;;;;;8262388;28;20027;-81
2022/10/05 15:58:45;;;;;;;1.73;1.25;;;18.90;99.90;;;;;;8250465;28;20041;-81
2022/10/05 16:03:24;;;;;;;3.00;1.40;;;18.60;99.90;;;;;;8259187;28;20026;-82
2022/10/05 16:12:08;;;;;;;2.20;1.20;;;18.20;99.90;;;;;;8259056;28;20037;-80
2022/10/05 16:16:19;;;;;;;3.22;1.15;;;17.90;99.90;;;;;;8212259;28;1062909;-80
2022/10/05 16:20:44;;;;;;;2.03;1.20;;;17.80;99.90;;;;;;8252589;28;20053;-81
2022/10/05 16:25:21;;;;;;;2.25;1.27;;;17.60;99.90;;;;;;8259962;28;20022;-80
2022/10/05 16:29:24;;;;;;;2.63;1.48;;;17.50;99.90;;;;;;8237589;28;20097;-81
2022/10/05 16:33:51;;;;;;;2.38;1.38;;;17.10;99.90;;;;;;8255732;28;20034;-81
2022/10/05 16:38:32;;;;;;;4.53;1.50;;;16.90;99.90;;;;;;8259617;28;20631;-80
2022/10/05 16:42:42;;;;;;;2.15;1.55;;;16.30;99.90;;;;;;8261373;28;20117;-80
2022/10/05 16:47:03;;;;;;;;;;;15.80;99.90;;;;;;8262875;28;20406;-81
2022/10/05 16:51:30;;;;;;;3.17;1.73;;;15.50;99.90;;;;;;8262658;28;20355;-80
2022/10/05 16:55:39;;;;;;;3.25;2.00;;;15.20;99.90;;;;;;8248519;28;20160;-80
2022/10/05 16:59:55;;;;;;;9.43;2.30;;;15.20;99.90;;;;;;8256482;28;20022;-81
2022/10/05 17:04:09;;;;;;;4.03;2.30;;;15.10;99.90;;;;;;8257283;28;20113;-80
2022/10/05 17:08:49;;;;;;;2.83;1.75;;;14.90;99.90;;;;;;8254075;28;20026;-80
2022/10/05 17:13:06;;;;;;;4.22;1.98;;;14.60;99.90;;;;;;8257520;28;20023;-80
2022/10/05 17:17:45;;;;;;;2.92;2.08;;;14.50;99.90;;;;;;8261220;28;20030;-81
2022/10/05 17:21:59;;;;;;;1.98;1.80;;;14.60;99.90;;;;;;8257902;28;20037;-80
2022/10/05 17:26:15;;;;;;;6.78;2.10;;;14.90;99.90;;;;;;8261624;28;20023;-80
2022/10/05 17:30:30;;;;;;;5.32;2.10;;;14.90;99.90;;;;;;8261867;28;20026;-79
2022/10/05 17:34:35;;;;;;;5.28;2.22;;;15.10;99.90;;;;;;8262756;28;20098;-80
2022/10/05 17:38:49;;;;;;;8.05;5.20;;;15.10;99.90;;;;;;8260949;28;20037;-80
2022/10/05 17:43:03;;;;;;;11.27;6.15;;;15.30;99.90;;;;;;8261089;28;20394;-82
2022/10/05 17:47:07;;;;;;;3.55;2.08;;;15.00;99.90;;;;;;8257689;28;20018;-79
2022/10/05 17:56:03;;;;;;;5.68;2.67;;;14.70;99.90;;;;;;8233379;28;20040;-80
2022/10/05 18:00:22;;;;;;;5.57;2.92;;;14.60;99.90;;;;;;8261904;28;20105;-81
2022/10/05 18:04:29;;;;;;;2.70;2.25;;;14.50;99.90;;;;;;8259493;28;20030;-81
2022/10/05 18:08:36;;;;;;;6.53;2.58;;;14.40;99.90;;;;;;8261965;28;20022;-81
2022/10/05 18:12:39;;;;;;;3.53;2.17;;;14.20;99.90;;;;;;8260973;28;20375;-81
2022/10/05 18:17:11;;;;;;;3.45;2.40;;;14.40;99.90;;;;;;8260415;28;20121;-80
2022/10/05 18:21:19;;;;;;;3.95;2.35;;;14.40;99.90;;;;;;8259158;28;20032;-80
2022/10/05 18:25:34;;;;;;;4.28;2.40;;;14.50;99.90;;;;;;8256623;28;20067;-80
2022/10/05 18:30:01;;;;;;;2.78;2.42;;;14.40;99.90;;;;;;8252174;28;20026;-80
2022/10/05 18:34:25;;;;;;;5.47;2.53;;;14.50;99.90;;;;;;8254544;28;20027;-80
2022/10/05 18:38:50;;;;;;;3.13;2.50;;;14.50;99.90;;;;;;8257992;28;20026;-80
2022/10/05 18:42:59;;;;;;;4.43;3.05;;;14.40;99.90;;;;;;8262729;28;20081;-80
2022/10/05 18:47:15;;;;;;;5.27;3.30;;;14.30;99.90;;;;;;8256162;28;20030;-80
2022/10/05 18:51:18;;;;;;;4.78;3.45;;;14.20;99.90;;;;;;8257067;28;20021;-80
2022/10/05 18:55:38;;;;;;;6.95;4.40;;;14.10;99.90;;;;;;8258015;28;20121;-80
2022/10/05 18:59:45;;;;;;;7.18;3.95;;;13.90;99.90;;;;;;8252079;28;20615;-80
2022/10/05 19:03:48;;;;;;;4.85;4.00;;;13.80;99.90;;;;;;8258638;28;20034;-80
2022/10/05 19:08:01;;;;;;;4.85;2.88;;;13.40;99.90;;;;;;8257207;28;20038;-80
2022/10/05 19:12:28;;;;;;;4.07;2.90;;;13.40;99.90;;;;;;8254749;28;20029;-79
2022/10/05 19:17:19;;;;;;;4.22;2.90;;;13.90;99.90;;;;;;8257723;28;20038;-80
2022/10/05 19:21:51;;;;;;;3.67;2.63;;;14.10;99.90;;;;;;8235402;28;20388;-79
2022/10/05 19:26:13;;;;;;;3.40;2.58;;;14.30;99.90;;;;;;8252853;28;20393;-80
2022/10/05 19:30:23;;;;;;;5.20;2.72;;;14.40;99.90;;;;;;8258525;28;20053;-81
2022/10/05 19:34:53;;;;;;;6.00;2.80;;;14.50;99.90;;;;;;8257653;28;20038;-80
2022/10/05 19:39:29;;;;;;;4.20;2.50;;;14.60;99.90;;;;;;8253526;28;20121;-80
2022/10/05 19:44:05;;;;;;;3.00;2.50;;;14.40;99.90;;;;;;8257234;28;20105;-80
2022/10/05 19:48:29;;;;;;;4.97;3.05;;;14.30;99.90;;;;;;8253071;28;20045;-81
2022/10/05 19:52:40;;;;;;;3.88;2.70;;;14.20;99.90;;;;;;8262356;28;20037;-79
2022/10/05 19:56:51;;;;;;;3.75;2.58;;;14.00;99.90;;;;;;8265554;28;20061;-81
2022/10/05 20:01:03;;;;;;;5.50;2.45;;;14.20;99.90;;;;;;8262699;28;20061;-80
2022/10/05 20:05:07;;;;;;;3.75;2.58;;;14.30;99.90;;;;;;8268181;28;20026;-78
2022/10/05 20:09:19;;;;;;;4.13;2.28;;;14.60;99.90;;;;;;8288497;28;20417;-80
2022/10/05 20:13:21;;;;;;;6.25;2.45;;;14.60;99.90;;;;;;8261000;28;20085;-78
2022/10/05 20:21:51;;;;;;;3.67;2.33;;;14.60;99.90;;;;;;8245372;28;20092;-78
2022/10/05 20:30:14;;;;;;;2.85;2.15;;;14.70;99.90;;;;;;8263200;28;20109;-78
2022/10/05 20:34:16;;;;;;;3.85;2.28;;;14.80;99.90;;;;;;8264773;28;20050;-78
2022/10/05 20:38:17;;;;;;;4.78;2.40;;;14.80;99.90;;;;;;8264658;28;20053;-79
2022/10/05 20:42:18;;;;;;;2.53;2.15;;;14.80;99.90;;;;;;8262993;28;20022;-79
2022/10/05 20:46:19;;;;;;;4.20;2.22;;;14.80;99.90;;;;;;8263504;28;20054;-79
2022/10/05 20:50:21;;;;;;;4.38;2.50;;;14.70;99.90;;;;;;8262900;28;20023;-78
2022/10/05 20:54:22;;;;;;;3.70;2.75;;;14.60;99.90;;;;;;8264298;28;20632;-78
2022/10/05 20:58:23;;;;;;;3.10;2.75;;;14.40;99.90;;;;;;8261582;28;20125;-78
2022/10/05 21:02:24;;;;;;;2.80;2.50;;;14.20;99.90;;;;;;8262202;28;20030;-79
2022/10/05 21:06:28;;;;;;;4.70;2.85;;;14.20;99.90;;;;;;8262106;28;20026;-78
2022/10/05 21:10:28;;;;;;;2.95;2.65;;;14.20;99.90;;;;;;8264212;28;20026;-79
2022/10/05 21:14:32;;;;;;;3.30;2.67;;;13.90;99.90;;;;;;8263208;28;20040;-80
2022/10/05 21:18:33;;;;;;;4.78;2.85;;;14.00;99.90;;;;;;8263614;28;20097;-80
2022/10/05 21:22:35;;;;;;;3.78;2.70;;;13.90;99.90;;;;;;8262262;28;20030;-80
2022/10/05 21:26:36;;;;;;;4.57;3.17;;;13.50;99.90;;;;;;8263263;28;20065;-79
2022/10/05 21:30:36;;;;;;;3.83;3.03;;;13.40;99.90;;;;;;8263297;28;20362;-79
2022/10/05 21:34:38;;;;;;;4.28;3.08;;;13.10;99.90;;;;;;8263139;28;20030;-79
2022/10/05 21:38:39;;;;;;;3.78;2.83;;;12.80;99.90;;;;;;8262546;28;20035;-79
2022/10/05 21:42:40;;;;;;;4.95;2.95;;;12.50;99.90;;;;;;8261817;28;20486;-78
2022/10/05 21:46:40;;;;;;;5.75;3.38;;;12.10;99.90;;;;;;8263049;28;20045;-80
2022/10/05 21:50:41;;;;;;;6.05;3.67;;;11.60;99.90;;;;;;8261635;28;20057;-79
2022/10/05 21:54:42;;;;;;;6.30;3.00;;;11.40;99.90;;;;;;8261712;28;20030;-79
2022/10/05 21:58:45;;;;;;;4.25;2.90;;;11.20;99.90;;;;;;8261351;28;20031;-80
2022/10/05 22:02:46;;;;;;;4.68;2.88;;;11.10;99.90;;;;;;8260910;28;20058;-80
2022/10/05 22:06:48;;;;;;;5.13;3.25;;;10.90;99.90;;;;;;8260478;28;20018;-79
2022/10/05 22:10:48;;;;;;;6.10;2.75;;;10.80;99.90;;;;;;8261137;28;20033;-79
2022/10/05 22:14:49;;;;;;;5.03;3.25;;;10.70;99.90;;;;;;8261194;28;20038;-79
2022/10/05 22:18:52;;;;;;;7.25;3.63;;;10.60;99.90;;;;;;8261098;28;20076;-78
2022/10/05 22:22:53;;;;;;;4.80;3.38;;;10.50;99.90;;;;;;8261828;28;20022;-79
2022/10/05 22:26:53;;;;;;;6.00;3.35;;;10.50;99.90;;;;;;8261082;28;20022;-78
2022/10/05 22:30:54;;;;;;;6.05;3.65;;;10.50;99.90;;;;;;8261084;28;20102;-78
2022/10/05 22:34:54;;;;;;;6.70;3.65;;;10.30;99.90;;;;;;8260648;28;20418;-79
2022/10/05 22:38:55;;;;;;;7.10;3.90;;;10.10;99.90;;;;;;8261384;28;20023;-80
2022/10/05 22:42:56;;;;;;;6.30;4.00;;;10.00;99.90;;;;;;8261725;28;20037;-79